VQBOS LGIR-LCLK
Flight info
| Callsign | VQBOS |
|---|---|
| Flight time | 1h 7m |
| Altitude | 37000 |
| Route | N0460F370 VEGES UN1 SIT UM978 TOSKA M978 TOBAL R78 LUBES |
| Aircraft | B738/M-Q/L |
Departure
| Time | 2026-05-06 04:36 |
|---|---|
| Airport | Heraklion International Nikos Kazantzakis Airport (LGIR) |
Arrival
| Time | 2026-05-06 05:43 |
|---|---|
| Airport | Larnaca International Airport (LCLK) |
| Time | Latitude | Longitude | Altitude | Speed | Heading |
|---|---|---|---|---|---|
| 2026-05-06 04:29 | 35.33867 | 25.17550 | 90 ft | 0 kts | 314° |
| 2026-05-06 04:33 | 35.33891 | 25.17519 | 90 ft | 11 kts | 309° |
| 2026-05-06 04:33 | 35.33918 | 25.17389 | 90 ft | 19 kts | 275° |
| 2026-05-06 04:34 | 35.33931 | 25.17228 | 90 ft | 19 kts | 275° |
| 2026-05-06 04:34 | 35.33942 | 25.17072 | 92 ft | 18 kts | 275° |
| 2026-05-06 04:34 | 35.33952 | 25.16921 | 91 ft | 17 kts | 274° |
| 2026-05-06 04:34 | 35.33964 | 25.16778 | 91 ft | 17 kts | 283° |
| 2026-05-06 04:35 | 35.34022 | 25.16663 | 91 ft | 16 kts | 341° |
| 2026-05-06 04:35 | 35.34067 | 25.16742 | 90 ft | 13 kts | 96° |
| 2026-05-06 04:35 | 35.34055 | 25.16873 | 93 ft | 30 kts | 95° |
| 2026-05-06 04:35 | 35.34005 | 25.17528 | 90 ft | 123 kts | 95° |
| 2026-05-06 04:36 | 35.33910 | 25.18876 | 226 ft | 187 kts | 98° |
| 2026-05-06 04:36 | 35.33791 | 25.20580 | 737 ft | 205 kts | 97° |
| 2026-05-06 04:36 | 35.33660 | 25.22315 | 1290 ft | 207 kts | 97° |
| 2026-05-06 04:36 | 35.33493 | 25.24117 | 1706 ft | 218 kts | 95° |
| 2026-05-06 04:37 | 35.33363 | 25.26038 | 2075 ft | 238 kts | 92° |
| 2026-05-06 04:37 | 35.33277 | 25.28076 | 2630 ft | 246 kts | 91° |
| 2026-05-06 04:37 | 35.33190 | 25.30177 | 3346 ft | 248 kts | 91° |
| 2026-05-06 04:37 | 35.33095 | 25.32282 | 4170 ft | 246 kts | 91° |
| 2026-05-06 04:38 | 35.32994 | 25.34383 | 4962 ft | 247 kts | 90° |
| 2026-05-06 04:38 | 35.32886 | 25.36543 | 5534 ft | 261 kts | 90° |
| 2026-05-06 04:38 | 35.32769 | 25.38788 | 6487 ft | 263 kts | 90° |
| 2026-05-06 04:38 | 35.32647 | 25.41036 | 7366 ft | 268 kts | 90° |
| 2026-05-06 04:39 | 35.32520 | 25.43344 | 8170 ft | 275 kts | 90° |
| 2026-05-06 04:39 | 35.32389 | 25.45697 | 9030 ft | 280 kts | 89° |
| 2026-05-06 04:39 | 35.32253 | 25.48097 | 9869 ft | 286 kts | 89° |
| 2026-05-06 04:39 | 35.32114 | 25.50531 | 10508 ft | 298 kts | 90° |
| 2026-05-06 04:40 | 35.31966 | 25.53181 | 10706 ft | 325 kts | 90° |
| 2026-05-06 04:40 | 35.31803 | 25.56050 | 11018 ft | 347 kts | 90° |
| 2026-05-06 04:40 | 35.31628 | 25.59039 | 11661 ft | 356 kts | 91° |
| 2026-05-06 04:40 | 35.31445 | 25.62093 | 12434 ft | 362 kts | 91° |
| 2026-05-06 04:41 | 35.31257 | 25.65196 | 13242 ft | 367 kts | 91° |
| 2026-05-06 04:41 | 35.31068 | 25.68346 | 14026 ft | 374 kts | 91° |
| 2026-05-06 04:41 | 35.30876 | 25.71543 | 14781 ft | 379 kts | 91° |
| 2026-05-06 04:41 | 35.30679 | 25.74765 | 15646 ft | 382 kts | 91° |
| 2026-05-06 04:42 | 35.30482 | 25.78038 | 16427 ft | 386 kts | 91° |
| 2026-05-06 04:42 | 35.30284 | 25.81335 | 17223 ft | 390 kts | 91° |
| 2026-05-06 04:42 | 35.30083 | 25.84671 | 18009 ft | 394 kts | 91° |
| 2026-05-06 04:42 | 35.29880 | 25.87995 | 18717 ft | 398 kts | 91° |
| 2026-05-06 04:43 | 35.29665 | 25.91405 | 19382 ft | 403 kts | 93° |
| 2026-05-06 04:43 | 35.29262 | 25.94822 | 20029 ft | 409 kts | 98° |
| 2026-05-06 04:43 | 35.28687 | 25.98257 | 20673 ft | 414 kts | 100° |
| 2026-05-06 04:43 | 35.28043 | 26.01709 | 21301 ft | 418 kts | 101° |
| 2026-05-06 04:44 | 35.27380 | 26.05190 | 21926 ft | 422 kts | 101° |
| 2026-05-06 04:44 | 35.26717 | 26.08713 | 22534 ft | 426 kts | 101° |
| 2026-05-06 04:44 | 35.26069 | 26.12229 | 23124 ft | 431 kts | 101° |
| 2026-05-06 04:44 | 35.25418 | 26.15823 | 23691 ft | 435 kts | 101° |
| 2026-05-06 04:45 | 35.24767 | 26.19457 | 24183 ft | 439 kts | 100° |
| 2026-05-06 04:45 | 35.24115 | 26.23125 | 24676 ft | 442 kts | 100° |
| 2026-05-06 04:45 | 35.23459 | 26.26818 | 25168 ft | 446 kts | 100° |
| 2026-05-06 04:45 | 35.22798 | 26.30543 | 25633 ft | 449 kts | 100° |
| 2026-05-06 04:46 | 35.22129 | 26.34300 | 26109 ft | 453 kts | 100° |
| 2026-05-06 04:46 | 35.21455 | 26.38079 | 26577 ft | 456 kts | 100° |
| 2026-05-06 04:46 | 35.20776 | 26.41878 | 27030 ft | 459 kts | 100° |
| 2026-05-06 04:46 | 35.20089 | 26.45711 | 27468 ft | 462 kts | 100° |
| 2026-05-06 04:47 | 35.19406 | 26.49514 | 27913 ft | 465 kts | 100° |
| 2026-05-06 04:47 | 35.18710 | 26.53383 | 28343 ft | 468 kts | 101° |
| 2026-05-06 04:47 | 35.18007 | 26.57281 | 28762 ft | 471 kts | 101° |
| 2026-05-06 04:47 | 35.17297 | 26.61213 | 29166 ft | 474 kts | 101° |
| 2026-05-06 04:48 | 35.16582 | 26.65160 | 29589 ft | 476 kts | 101° |
| 2026-05-06 04:48 | 35.15864 | 26.69124 | 30014 ft | 478 kts | 101° |
| 2026-05-06 04:48 | 35.15140 | 26.73107 | 30421 ft | 479 kts | 101° |
| 2026-05-06 04:48 | 35.14423 | 26.77044 | 30766 ft | 481 kts | 100° |
| 2026-05-06 04:49 | 35.13696 | 26.81028 | 31086 ft | 482 kts | 100° |
| 2026-05-06 04:49 | 35.12211 | 26.89157 | 31093 ft | 495 kts | 100° |
| 2026-05-06 04:50 | 35.10706 | 26.97341 | 31088 ft | 495 kts | 101° |
| 2026-05-06 04:50 | 35.09194 | 27.05536 | 31081 ft | 494 kts | 101° |
| 2026-05-06 04:51 | 35.07681 | 27.13706 | 31086 ft | 492 kts | 101° |
| 2026-05-06 04:51 | 35.06169 | 27.21848 | 31081 ft | 490 kts | 101° |
| 2026-05-06 04:52 | 35.04989 | 27.29960 | 31074 ft | 486 kts | 90° |
| 2026-05-06 04:52 | 35.04879 | 27.38187 | 31077 ft | 483 kts | 88° |
| 2026-05-06 04:53 | 35.04772 | 27.46393 | 31084 ft | 483 kts | 88° |
| 2026-05-06 04:53 | 35.04584 | 27.54593 | 31089 ft | 483 kts | 89° |
| 2026-05-06 04:54 | 35.04396 | 27.62800 | 31090 ft | 483 kts | 88° |
| 2026-05-06 04:54 | 35.04208 | 27.71018 | 31074 ft | 484 kts | 88° |
| 2026-05-06 04:55 | 35.04017 | 27.79188 | 31083 ft | 484 kts | 88° |
| 2026-05-06 04:55 | 35.03817 | 27.87407 | 31077 ft | 485 kts | 88° |
| 2026-05-06 04:56 | 35.03611 | 27.95647 | 31079 ft | 485 kts | 88° |
| 2026-05-06 04:56 | 35.03400 | 28.03875 | 31072 ft | 485 kts | 88° |
| 2026-05-06 04:57 | 35.03184 | 28.12075 | 31076 ft | 486 kts | 88° |
| 2026-05-06 04:57 | 35.02961 | 28.20325 | 31070 ft | 486 kts | 88° |
| 2026-05-06 04:58 | 35.02733 | 28.28562 | 31075 ft | 485 kts | 88° |
| 2026-05-06 04:58 | 35.02499 | 28.36797 | 31076 ft | 485 kts | 88° |
| 2026-05-06 04:59 | 35.02261 | 28.45018 | 31073 ft | 485 kts | 88° |
| 2026-05-06 04:59 | 35.02018 | 28.53198 | 31066 ft | 484 kts | 88° |
| 2026-05-06 05:00 | 35.01769 | 28.61417 | 31071 ft | 484 kts | 88° |
| 2026-05-06 05:00 | 35.01512 | 28.69624 | 31066 ft | 484 kts | 88° |
| 2026-05-06 05:01 | 35.01246 | 28.77818 | 31071 ft | 483 kts | 88° |
| 2026-05-06 05:01 | 35.00976 | 28.85975 | 31067 ft | 483 kts | 88° |
| 2026-05-06 05:02 | 35.00701 | 28.94167 | 31067 ft | 483 kts | 88° |
| 2026-05-06 05:02 | 35.00419 | 29.02383 | 31063 ft | 483 kts | 88° |
| 2026-05-06 05:03 | 35.00133 | 29.10558 | 31064 ft | 483 kts | 88° |
| 2026-05-06 05:03 | 34.99842 | 29.18748 | 31064 ft | 483 kts | 88° |
| 2026-05-06 05:04 | 34.99545 | 29.26942 | 31061 ft | 482 kts | 88° |
| 2026-05-06 05:04 | 34.99245 | 29.35082 | 31062 ft | 484 kts | 88° |
| 2026-05-06 05:05 | 34.98937 | 29.43288 | 31059 ft | 485 kts | 88° |
| 2026-05-06 05:05 | 34.98623 | 29.51530 | 31058 ft | 485 kts | 88° |
| 2026-05-06 05:06 | 34.98305 | 29.59722 | 31050 ft | 486 kts | 88° |
| 2026-05-06 05:06 | 34.97981 | 29.67961 | 31054 ft | 486 kts | 88° |
| 2026-05-06 05:07 | 34.97650 | 29.76221 | 31049 ft | 487 kts | 88° |
| 2026-05-06 05:07 | 34.97316 | 29.84406 | 31053 ft | 487 kts | 88° |
| 2026-05-06 05:08 | 34.96975 | 29.92653 | 31045 ft | 487 kts | 88° |
| 2026-05-06 05:08 | 34.96630 | 30.00918 | 31052 ft | 487 kts | 87° |
| 2026-05-06 05:09 | 34.96473 | 30.09170 | 31041 ft | 486 kts | 85° |
| 2026-05-06 05:09 | 34.96432 | 30.16033 | 31056 ft | 486 kts | 85° |
| 2026-05-06 05:10 | 34.96354 | 30.25661 | 31055 ft | 488 kts | 85° |
| 2026-05-06 05:10 | 34.96271 | 30.32557 | 31058 ft | 488 kts | 85° |
| 2026-05-06 05:11 | 34.96155 | 30.40845 | 31052 ft | 489 kts | 86° |
| 2026-05-06 05:11 | 34.96031 | 30.49151 | 31047 ft | 490 kts | 86° |
| 2026-05-06 05:12 | 34.95903 | 30.57485 | 31050 ft | 491 kts | 86° |
| 2026-05-06 05:12 | 34.95769 | 30.65823 | 31056 ft | 492 kts | 86° |
| 2026-05-06 05:13 | 34.95631 | 30.74133 | 31056 ft | 493 kts | 86° |
| 2026-05-06 05:13 | 34.95486 | 30.82513 | 31050 ft | 494 kts | 86° |
| 2026-05-06 05:14 | 34.95334 | 30.90912 | 31054 ft | 495 kts | 86° |
| 2026-05-06 05:14 | 34.95177 | 30.99310 | 31055 ft | 496 kts | 86° |
| 2026-05-06 05:15 | 34.95014 | 31.07726 | 31053 ft | 497 kts | 86° |
| 2026-05-06 05:15 | 34.94845 | 31.16123 | 31060 ft | 497 kts | 86° |
| 2026-05-06 05:16 | 34.94670 | 31.24565 | 31054 ft | 498 kts | 86° |
| 2026-05-06 05:16 | 34.94489 | 31.32972 | 31065 ft | 499 kts | 86° |
| 2026-05-06 05:17 | 34.94301 | 31.41430 | 31061 ft | 499 kts | 86° |
| 2026-05-06 05:17 | 34.94107 | 31.49917 | 31060 ft | 500 kts | 86° |
| 2026-05-06 05:18 | 34.93907 | 31.58402 | 31056 ft | 501 kts | 86° |
| 2026-05-06 05:18 | 34.93703 | 31.66846 | 31064 ft | 502 kts | 86° |
| 2026-05-06 05:19 | 34.93490 | 31.75363 | 31060 ft | 502 kts | 87° |
| 2026-05-06 05:19 | 34.93380 | 31.79583 | 31043 ft | 488 kts | 87° |
| 2026-05-06 05:19 | 34.93269 | 31.83669 | 30667 ft | 478 kts | 86° |
| 2026-05-06 05:19 | 34.93165 | 31.87650 | 30194 ft | 474 kts | 86° |
| 2026-05-06 05:20 | 34.93060 | 31.91643 | 29643 ft | 469 kts | 86° |
| 2026-05-06 05:20 | 34.92957 | 31.95591 | 29089 ft | 464 kts | 86° |
| 2026-05-06 05:20 | 34.92852 | 31.99503 | 28548 ft | 459 kts | 87° |
| 2026-05-06 05:20 | 34.92748 | 32.03371 | 28014 ft | 455 kts | 87° |
| 2026-05-06 05:21 | 34.92643 | 32.07203 | 27484 ft | 450 kts | 87° |
| 2026-05-06 05:21 | 34.92537 | 32.11017 | 26980 ft | 452 kts | 87° |
| 2026-05-06 05:21 | 34.92449 | 32.14864 | 26482 ft | 456 kts | 86° |
| 2026-05-06 05:21 | 34.92414 | 32.18745 | 25994 ft | 460 kts | 86° |
| 2026-05-06 05:22 | 34.92400 | 32.22647 | 25496 ft | 458 kts | 86° |
| 2026-05-06 05:22 | 34.92389 | 32.26515 | 25014 ft | 454 kts | 86° |
| 2026-05-06 05:22 | 34.92374 | 32.30343 | 24537 ft | 450 kts | 86° |
| 2026-05-06 05:22 | 34.92354 | 32.34144 | 24077 ft | 447 kts | 86° |
| 2026-05-06 05:23 | 34.92329 | 32.37919 | 23615 ft | 444 kts | 87° |
| 2026-05-06 05:23 | 34.92301 | 32.41662 | 23069 ft | 440 kts | 87° |
| 2026-05-06 05:23 | 34.92238 | 32.49032 | 21996 ft | 430 kts | 87° |
| 2026-05-06 05:24 | 34.92207 | 32.52665 | 21480 ft | 426 kts | 87° |
| 2026-05-06 05:24 | 34.92175 | 32.56259 | 20960 ft | 422 kts | 88° |
| 2026-05-06 05:24 | 34.92143 | 32.59819 | 20473 ft | 418 kts | 88° |
| 2026-05-06 05:24 | 34.92110 | 32.63305 | 19992 ft | 415 kts | 88° |
| 2026-05-06 05:25 | 34.92077 | 32.66814 | 19490 ft | 412 kts | 88° |
| 2026-05-06 05:25 | 34.92042 | 32.70294 | 19007 ft | 409 kts | 88° |
| 2026-05-06 05:25 | 34.92006 | 32.73747 | 18555 ft | 406 kts | 89° |
| 2026-05-06 05:25 | 34.91928 | 32.77173 | 18046 ft | 403 kts | 91° |
| 2026-05-06 05:26 | 34.91767 | 32.80580 | 17519 ft | 401 kts | 92° |
| 2026-05-06 05:26 | 34.91579 | 32.83966 | 16993 ft | 399 kts | 92° |
| 2026-05-06 05:26 | 34.91392 | 32.87323 | 16479 ft | 396 kts | 92° |
| 2026-05-06 05:26 | 34.91213 | 32.90663 | 15970 ft | 393 kts | 92° |
| 2026-05-06 05:27 | 34.91043 | 32.93972 | 15459 ft | 390 kts | 92° |
| 2026-05-06 05:27 | 34.90881 | 32.97223 | 14984 ft | 387 kts | 92° |
| 2026-05-06 05:27 | 34.90719 | 33.00482 | 14504 ft | 384 kts | 93° |
| 2026-05-06 05:27 | 34.90557 | 33.03722 | 14030 ft | 381 kts | 93° |
| 2026-05-06 05:28 | 34.90395 | 33.06935 | 13516 ft | 378 kts | 93° |
| 2026-05-06 05:28 | 34.90231 | 33.10125 | 12983 ft | 375 kts | 93° |
| 2026-05-06 05:28 | 34.90062 | 33.13253 | 12478 ft | 372 kts | 93° |
| 2026-05-06 05:28 | 34.89889 | 33.16393 | 11951 ft | 370 kts | 94° |
| 2026-05-06 05:29 | 34.89718 | 33.19501 | 11456 ft | 366 kts | 93° |
| 2026-05-06 05:29 | 34.89549 | 33.22584 | 10951 ft | 363 kts | 93° |
| 2026-05-06 05:29 | 34.89381 | 33.25641 | 10467 ft | 360 kts | 93° |
| 2026-05-06 05:29 | 34.89213 | 33.28667 | 9986 ft | 357 kts | 94° |
| 2026-05-06 05:30 | 34.89046 | 33.31680 | 9446 ft | 354 kts | 94° |
| 2026-05-06 05:30 | 34.88879 | 33.34670 | 8923 ft | 351 kts | 93° |
| 2026-05-06 05:30 | 34.88713 | 33.37625 | 8402 ft | 348 kts | 94° |
| 2026-05-06 05:30 | 34.88550 | 33.40514 | 7899 ft | 345 kts | 94° |
| 2026-05-06 05:31 | 34.88385 | 33.43425 | 7408 ft | 343 kts | 93° |
| 2026-05-06 05:31 | 34.88224 | 33.46297 | 7108 ft | 334 kts | 94° |
| 2026-05-06 05:31 | 34.88066 | 33.49062 | 7035 ft | 319 kts | 94° |
| 2026-05-06 05:31 | 34.87914 | 33.51693 | 7017 ft | 304 kts | 94° |
| 2026-05-06 05:32 | 34.87765 | 33.54259 | 6611 ft | 304 kts | 94° |
| 2026-05-06 05:32 | 34.87625 | 33.56695 | 6209 ft | 304 kts | 94° |
| 2026-05-06 05:32 | 34.87477 | 33.59262 | 5771 ft | 301 kts | 94° |
| 2026-05-06 05:32 | 34.87333 | 33.61774 | 5378 ft | 291 kts | 93° |
| 2026-05-06 05:33 | 34.87437 | 33.64158 | 5003 ft | 281 kts | 79° |
| 2026-05-06 05:33 | 34.87824 | 33.66453 | 4647 ft | 272 kts | 76° |
| 2026-05-06 05:33 | 34.88236 | 33.68668 | 4278 ft | 264 kts | 77° |
| 2026-05-06 05:33 | 34.88622 | 33.70828 | 3844 ft | 256 kts | 78° |
| 2026-05-06 05:34 | 34.88980 | 33.72925 | 3485 ft | 250 kts | 79° |
| 2026-05-06 05:34 | 34.89322 | 33.74982 | 3128 ft | 245 kts | 79° |
| 2026-05-06 05:34 | 34.89649 | 33.76972 | 2768 ft | 240 kts | 79° |
| 2026-05-06 05:34 | 34.89973 | 33.78949 | 2411 ft | 236 kts | 79° |
| 2026-05-06 05:35 | 34.90290 | 33.80889 | 2083 ft | 231 kts | 79° |
| 2026-05-06 05:35 | 34.90591 | 33.82741 | 2029 ft | 213 kts | 78° |
| 2026-05-06 05:35 | 34.90864 | 33.84417 | 2022 ft | 192 kts | 78° |
| 2026-05-06 05:35 | 34.91112 | 33.85938 | 2000 ft | 174 kts | 78° |
| 2026-05-06 05:36 | 34.91344 | 33.87366 | 2021 ft | 169 kts | 78° |
| 2026-05-06 05:36 | 34.91703 | 33.88720 | 2014 ft | 170 kts | 51° |
| 2026-05-06 05:36 | 34.92694 | 33.89441 | 1960 ft | 173 kts | 5° |
| 2026-05-06 05:36 | 34.93822 | 33.89081 | 1843 ft | 172 kts | 320° |
| 2026-05-06 05:37 | 34.94411 | 33.87871 | 1757 ft | 170 kts | 287° |
| 2026-05-06 05:37 | 34.94796 | 33.86502 | 1690 ft | 171 kts | 290° |
| 2026-05-06 05:37 | 34.95198 | 33.85117 | 1551 ft | 171 kts | 289° |
| 2026-05-06 05:37 | 34.95590 | 33.83758 | 1534 ft | 169 kts | 289° |
| 2026-05-06 05:38 | 34.95977 | 33.82410 | 1521 ft | 168 kts | 289° |
| 2026-05-06 05:38 | 34.96358 | 33.81082 | 1512 ft | 163 kts | 289° |
| 2026-05-06 05:38 | 34.96735 | 33.79771 | 1528 ft | 165 kts | 289° |
| 2026-05-06 05:38 | 34.97110 | 33.78463 | 1539 ft | 164 kts | 289° |
| 2026-05-06 05:39 | 34.97161 | 33.77155 | 1524 ft | 147 kts | 251° |
| 2026-05-06 05:39 | 34.96877 | 33.76008 | 1530 ft | 139 kts | 256° |
| 2026-05-06 05:39 | 34.96637 | 33.74863 | 1521 ft | 139 kts | 256° |
| 2026-05-06 05:39 | 34.96298 | 33.73784 | 1508 ft | 137 kts | 233° |
| 2026-05-06 05:40 | 34.95678 | 33.72903 | 1528 ft | 139 kts | 231° |
| 2026-05-06 05:40 | 34.95079 | 33.71976 | 1527 ft | 139 kts | 232° |
| 2026-05-06 05:40 | 34.94439 | 33.71088 | 1522 ft | 140 kts | 228° |
| 2026-05-06 05:40 | 34.93762 | 33.70229 | 1432 ft | 141 kts | 226° |
| 2026-05-06 05:41 | 34.93074 | 33.69381 | 1279 ft | 140 kts | 226° |
| 2026-05-06 05:41 | 34.92385 | 33.68537 | 1149 ft | 139 kts | 227° |
| 2026-05-06 05:41 | 34.91708 | 33.67706 | 975 ft | 138 kts | 227° |
| 2026-05-06 05:41 | 34.91032 | 33.66870 | 761 ft | 139 kts | 227° |
| 2026-05-06 05:42 | 34.90366 | 33.66030 | 574 ft | 138 kts | 227° |
| 2026-05-06 05:42 | 34.89678 | 33.65205 | 378 ft | 141 kts | 226° |
| 2026-05-06 05:42 | 34.88989 | 33.64367 | 211 ft | 140 kts | 226° |
| 2026-05-06 05:42 | 34.88293 | 33.63530 | 59 ft | 140 kts | 228° |
| 2026-05-06 05:43 | 34.87619 | 33.62709 | 24 ft | 134 kts | 228° |
| 2026-05-06 05:43 | 34.87072 | 33.62016 | 21 ft | 68 kts | 226° |
| 2026-05-06 05:43 | 34.86956 | 33.61733 | 21 ft | 25 kts | 255° |
| 2026-05-06 05:43 | 34.86926 | 33.61595 | 20 ft | 3 kts | 254° |
| 2026-05-06 05:44 | 34.86919 | 33.61566 | 20 ft | 4 kts | 254° |
| 2026-05-06 05:44 | 34.86911 | 33.61530 | 20 ft | 6 kts | 254° |
| 2026-05-06 05:44 | 34.86889 | 33.61442 | 21 ft | 15 kts | 251° |
| 2026-05-06 05:44 | 34.86888 | 33.61315 | 22 ft | 15 kts | 246° |
| 2026-05-06 05:45 | 34.86824 | 33.61225 | 20 ft | 12 kts | 224° |
| 2026-05-06 05:45 | 34.86767 | 33.61151 | 20 ft | 12 kts | 227° |
| 2026-05-06 05:45 | 34.86713 | 33.61080 | 20 ft | 11 kts | 225° |
| 2026-05-06 05:45 | 34.86657 | 33.61014 | 20 ft | 11 kts | 226° |
| 2026-05-06 05:46 | 34.86637 | 33.60957 | 20 ft | 6 kts | 287° |
| 2026-05-06 05:46 | 34.86667 | 33.60922 | 20 ft | 6 kts | 297° |
| 2026-05-06 05:46 | 34.86647 | 33.60876 | 20 ft | 7 kts | 224° |
| 2026-05-06 05:46 | 34.86629 | 33.60852 | 21 ft | 0 kts | 226° |